Salfords, United Kingdom
Current Conditions -  °F | °C
As of 3:50 AM on Saturday 20 Dec 2014 (Local Time) from EGKK Reporting Station
Broken Clouds Broken Clouds  
Wind Chill: 35°   Ceiling: 4200
Heat Index: 41°   Visibility: 6mi
Dew Point: 37°   Wind: 9mph
Humidity: 87%   Direction: 240°WSW
Pressure: 30.27"   Gusts: NA
Location:  51.2°N, 0.17°W
Report Text: EGKK 200350Z 24008KT 9999 BKN042 05/03 Q1025
Loading
Personal Weather Stations






























Interactive Weather Map New forecast layout! Learn more

10-Day Weather Forecast

Advertisements
Track Severe Weather on mobile